createdAt,value
2023-05-09T00:00:49.696Z,13.52
2023-05-09T00:03:16.061Z,13.52
2023-05-09T00:05:42.443Z,13.49
2023-05-09T00:08:09.043Z,13.56
2023-05-09T00:10:35.363Z,13.49
2023-05-09T00:13:01.797Z,13.43
2023-05-09T00:15:28.291Z,13.32
2023-05-09T00:17:54.735Z,13.43
2023-05-09T00:20:21.688Z,13.37
2023-05-09T00:22:48.064Z,13.37
2023-05-09T00:25:14.598Z,13.40
2023-05-09T00:27:41.160Z,13.42
2023-05-09T00:30:08.183Z,13.30
2023-05-09T00:32:34.666Z,13.25
2023-05-09T00:35:01.016Z,13.24
2023-05-09T00:37:29.074Z,13.22
2023-05-09T00:39:55.383Z,13.20
2023-05-09T00:42:21.689Z,13.20
2023-05-09T00:44:48.014Z,13.18
2023-05-09T00:47:14.406Z,13.14
2023-05-09T00:49:40.730Z,13.20
2023-05-09T00:52:07.038Z,13.19
2023-05-09T00:54:33.403Z,13.22
2023-05-09T00:56:59.732Z,13.18
2023-05-09T00:59:27.760Z,13.27
2023-05-09T01:01:54.116Z,13.23
2023-05-09T01:04:20.531Z,13.14
2023-05-09T01:07:30.153Z,12.99
2023-05-09T01:10:07.709Z,13.06
2023-05-09T01:12:58.772Z,13.05
2023-05-09T01:15:50.455Z,13.04
2023-05-09T01:18:30.192Z,13.06
2023-05-09T01:21:08.398Z,12.97
2023-05-09T01:24:13.521Z,12.97
2023-05-09T01:26:55.972Z,12.99
2023-05-09T01:29:45.468Z,12.97
2023-05-09T01:32:17.274Z,12.95
2023-05-09T01:34:45.492Z,12.86
2023-05-09T01:37:14.785Z,12.84
2023-05-09T01:39:44.780Z,12.74
2023-05-09T01:42:12.903Z,12.72
2023-05-09T01:44:41.164Z,12.77
2023-05-09T01:47:08.533Z,12.68
2023-05-09T01:49:40.192Z,12.61
2023-05-09T01:52:09.977Z,12.58
2023-05-09T01:54:37.774Z,12.55
2023-05-09T01:57:06.259Z,12.34
2023-05-09T01:59:33.887Z,12.26
2023-05-09T02:02:02.692Z,12.10
2023-05-09T02:04:30.872Z,11.97
2023-05-09T02:06:58.965Z,11.98
2023-05-09T02:09:25.837Z,11.97
2023-05-09T02:11:52.243Z,11.87
2023-05-09T02:14:18.542Z,11.97
2023-05-09T02:16:44.925Z,11.95
2023-05-09T02:19:11.396Z,11.94
2023-05-09T02:21:37.874Z,12.00
2023-05-09T02:24:04.583Z,11.91
2023-05-09T02:26:31.378Z,11.88
2023-05-09T02:28:58.829Z,11.91
2023-05-09T02:31:27.357Z,11.86
2023-05-09T02:33:54.714Z,11.84
2023-05-09T02:36:22.575Z,11.93
2023-05-09T02:38:49.028Z,11.84
2023-05-09T02:41:16.084Z,11.75
2023-05-09T02:43:42.936Z,11.81
2023-05-09T02:46:10.386Z,11.80
2023-05-09T02:48:36.895Z,11.89
2023-05-09T02:51:03.389Z,11.99
2023-05-09T02:53:29.758Z,11.90
2023-05-09T02:55:56.068Z,11.77
2023-05-09T02:58:22.380Z,11.93
2023-05-09T03:00:48.712Z,11.88
2023-05-09T03:03:15.191Z,11.71
2023-05-09T03:05:41.565Z,11.72
2023-05-09T03:08:07.912Z,11.70
2023-05-09T03:10:34.531Z,11.72
2023-05-09T03:13:01.271Z,11.68
2023-05-09T03:15:27.678Z,11.70
2023-05-09T03:17:54.081Z,11.69
2023-05-09T03:20:20.487Z,11.73
2023-05-09T03:22:46.807Z,11.70
2023-05-09T03:25:13.410Z,11.59
2023-05-09T03:27:39.901Z,11.61
2023-05-09T03:30:06.953Z,11.73
2023-05-09T03:32:33.396Z,11.70
2023-05-09T03:34:59.713Z,11.60
2023-05-09T03:37:27.224Z,11.71
2023-05-09T03:39:53.749Z,11.71
2023-05-09T03:42:20.045Z,11.74
2023-05-09T03:44:46.370Z,11.73
2023-05-09T03:47:12.694Z,11.72
2023-05-09T03:49:39.008Z,11.65
2023-05-09T03:52:05.505Z,11.74
2023-05-09T03:54:31.792Z,11.72
2023-05-09T03:56:58.093Z,11.83
2023-05-09T03:59:24.422Z,11.80
2023-05-09T04:01:50.854Z,11.79
2023-05-09T04:04:17.249Z,11.79
2023-05-09T04:06:43.564Z,11.87
2023-05-09T04:09:09.935Z,11.96
2023-05-09T04:11:36.264Z,11.97
2023-05-09T04:14:02.604Z,12.08
2023-05-09T04:16:30.125Z,12.15
2023-05-09T04:18:56.452Z,12.25
2023-05-09T04:21:22.775Z,12.22
2023-05-09T04:23:49.083Z,12.30
2023-05-09T04:26:15.403Z,12.24
2023-05-09T04:28:41.692Z,12.29
2023-05-09T04:31:08.096Z,12.41
2023-05-09T04:33:34.542Z,12.58
2023-05-09T04:36:00.907Z,12.80
2023-05-09T04:38:27.698Z,12.79
2023-05-09T04:40:54.056Z,12.78
2023-05-09T04:43:20.372Z,12.73
2023-05-09T04:45:46.803Z,12.70
2023-05-09T04:48:13.124Z,12.87
2023-05-09T04:50:40.953Z,12.97
2023-05-09T04:53:07.272Z,12.93
2023-05-09T04:55:33.607Z,12.94
2023-05-09T04:57:59.949Z,13.04
2023-05-09T05:00:26.248Z,13.22
2023-05-09T05:02:52.583Z,13.02
2023-05-09T05:05:24.528Z,13.12
2023-05-09T05:07:51.895Z,13.32
2023-05-09T05:10:18.240Z,13.25
2023-05-09T05:12:44.567Z,13.21
2023-05-09T05:15:11.576Z,13.23
2023-05-09T05:17:37.998Z,13.20
2023-05-09T05:20:04.827Z,13.28
2023-05-09T05:22:32.761Z,13.42
2023-05-09T05:24:59.213Z,13.50
2023-05-09T05:27:25.524Z,13.70
2023-05-09T05:29:51.828Z,13.82
2023-05-09T05:32:18.226Z,13.83
2023-05-09T05:34:44.532Z,13.88
2023-05-09T05:37:10.871Z,13.95
2023-05-09T05:39:37.162Z,14.09
2023-05-09T05:42:03.515Z,14.20
2023-05-09T05:44:29.840Z,14.45
2023-05-09T05:46:56.263Z,14.42
2023-05-09T05:49:22.587Z,14.57
2023-05-09T05:51:48.898Z,14.61
2023-05-09T05:54:15.193Z,14.93
2023-05-09T05:56:41.527Z,15.12
2023-05-09T05:59:07.950Z,15.37
2023-05-09T06:01:34.340Z,16.15
2023-05-09T06:04:00.686Z,16.34
2023-05-09T06:06:27.364Z,16.85
2023-05-09T06:08:53.753Z,17.45
2023-05-09T06:11:20.082Z,18.72
2023-05-09T06:13:46.399Z,20.11
2023-05-09T06:16:19.640Z,19.13
2023-05-09T06:18:47.455Z,19.31
2023-05-09T06:21:13.810Z,19.19
2023-05-09T06:23:47.265Z,19.34
2023-05-09T06:26:23.774Z,19.33
2023-05-09T06:28:50.151Z,19.20
2023-05-09T06:31:16.559Z,18.23
2023-05-09T06:33:42.924Z,17.89
2023-05-09T06:36:09.406Z,17.86
2023-05-09T06:38:35.701Z,18.11
2023-05-09T06:41:02.017Z,18.28
2023-05-09T06:43:28.347Z,18.64
2023-05-09T06:45:54.753Z,18.73
2023-05-09T06:48:21.083Z,18.12
2023-05-09T06:50:47.693Z,17.91
2023-05-09T06:53:14.112Z,18.06
2023-05-09T06:55:40.461Z,17.53
2023-05-09T06:58:06.760Z,17.35
2023-05-09T07:00:33.098Z,17.26
2023-05-09T07:02:59.425Z,17.26
2023-05-09T07:05:25.932Z,17.06
2023-05-09T07:07:52.519Z,17.24
2023-05-09T07:10:18.895Z,17.32
2023-05-09T07:12:45.194Z,17.39
2023-05-09T07:15:11.691Z,17.37
2023-05-09T07:17:38.042Z,17.53
2023-05-09T07:20:04.916Z,17.28
2023-05-09T07:22:32.676Z,17.43
2023-05-09T07:24:59.972Z,17.65
2023-05-09T07:27:26.335Z,17.24
2023-05-09T07:29:52.698Z,17.67
2023-05-09T07:32:19.559Z,17.77
2023-05-09T07:34:45.880Z,17.90
2023-05-09T07:37:13.664Z,17.95
2023-05-09T07:39:41.717Z,18.10
2023-05-09T07:42:08.058Z,18.40
2023-05-09T07:44:34.770Z,18.25
2023-05-09T07:47:01.232Z,18.49
2023-05-09T07:49:27.540Z,18.70
2023-05-09T07:51:53.849Z,18.60
2023-05-09T07:54:20.179Z,18.86
2023-05-09T07:56:46.495Z,18.61
2023-05-09T07:59:12.825Z,18.56
2023-05-09T08:01:39.228Z,18.46
2023-05-09T08:04:05.654Z,18.82
2023-05-09T08:06:32.705Z,19.11
2023-05-09T08:08:59.005Z,19.28
2023-05-09T08:11:25.334Z,19.57
2023-05-09T08:13:51.976Z,19.89
2023-05-09T08:16:18.277Z,20.15
2023-05-09T08:18:44.994Z,20.47
2023-05-09T08:21:11.705Z,20.73
2023-05-09T08:23:38.026Z,20.72
2023-05-09T08:26:04.376Z,20.79
2023-05-09T08:28:30.669Z,20.63
2023-05-09T08:30:57.092Z,20.10
2023-05-09T08:33:23.991Z,20.14
2023-05-09T08:35:51.583Z,20.04
2023-05-09T08:38:17.889Z,20.06
2023-05-09T08:40:44.245Z,20.22
2023-05-09T08:43:11.793Z,20.08
2023-05-09T08:45:51.723Z,19.83
2023-05-09T08:48:19.107Z,19.62
2023-05-09T08:50:45.515Z,19.77
2023-05-09T08:53:12.008Z,19.82
2023-05-09T08:55:38.749Z,19.81
2023-05-09T08:58:05.680Z,19.88
2023-05-09T09:00:33.554Z,20.27
2023-05-09T09:03:01.850Z,20.73
2023-05-09T09:08:01.698Z,21.41
2023-05-09T09:10:31.710Z,21.20
2023-05-09T09:12:59.520Z,21.06
2023-05-09T09:15:29.724Z,21.14
2023-05-09T09:18:01.087Z,21.14
2023-05-09T09:20:31.299Z,20.75
2023-05-09T09:22:59.867Z,20.69
2023-05-09T09:25:26.251Z,20.28
2023-05-09T09:27:52.557Z,20.11
2023-05-09T09:30:19.050Z,19.90
2023-05-09T09:32:45.395Z,19.66
2023-05-09T09:35:12.106Z,19.92
2023-05-09T09:37:40.565Z,19.91
2023-05-09T09:40:08.738Z,19.93
2023-05-09T09:42:48.490Z,19.84
2023-05-09T09:45:19.769Z,19.96
2023-05-09T09:47:48.320Z,19.96
2023-05-09T09:50:17.151Z,19.94
2023-05-09T09:52:54.659Z,19.80
2023-05-09T09:55:22.742Z,20.02
2023-05-09T09:57:49.037Z,20.39
2023-05-09T10:00:17.648Z,20.36
2023-05-09T10:03:02.418Z,20.40
2023-05-09T10:05:30.571Z,20.17
2023-05-09T10:07:58.941Z,20.18
2023-05-09T10:10:27.795Z,20.27
2023-05-09T10:12:58.968Z,20.29
2023-05-09T10:15:30.041Z,20.06
2023-05-09T10:18:00.904Z,20.21
2023-05-09T10:20:28.496Z,20.56
2023-05-09T10:22:58.687Z,20.88
2023-05-09T10:25:46.762Z,21.31
2023-05-09T10:28:22.450Z,21.92
2023-05-09T10:31:14.757Z,21.74
2023-05-09T10:33:48.919Z,21.87
2023-05-09T10:36:17.733Z,22.07
2023-05-09T10:38:44.988Z,22.48
2023-05-09T10:41:11.645Z,22.37
2023-05-09T10:43:38.167Z,22.54
2023-05-09T10:46:05.384Z,22.36
2023-05-09T10:48:33.174Z,22.30
2023-05-09T10:51:03.959Z,22.45
2023-05-09T10:53:49.910Z,22.51
2023-05-09T10:56:33.681Z,22.21
2023-05-09T10:59:00.417Z,22.36
2023-05-09T11:01:38.082Z,22.43
2023-05-09T11:04:16.409Z,22.46
2023-05-09T11:06:42.695Z,22.45
2023-05-09T11:09:28.635Z,22.42
2023-05-09T11:12:05.472Z,22.74
2023-05-09T11:14:37.529Z,22.90
2023-05-09T11:17:11.928Z,23.04
2023-05-09T11:19:47.302Z,23.24
2023-05-09T11:22:18.651Z,23.25
2023-05-09T11:24:46.049Z,22.82
2023-05-09T11:27:23.127Z,22.66
2023-05-09T11:29:57.473Z,22.76
2023-05-09T11:32:40.761Z,22.76
2023-05-09T11:35:09.104Z,22.66
2023-05-09T11:38:04.832Z,22.79
2023-05-09T11:40:32.269Z,22.96
2023-05-09T11:42:59.866Z,22.86
2023-05-09T11:45:28.933Z,23.13
2023-05-09T11:47:55.562Z,23.10
2023-05-09T11:50:21.884Z,22.88
2023-05-09T11:52:49.643Z,22.89
2023-05-09T11:55:18.340Z,23.02
2023-05-09T11:57:47.215Z,23.20
2023-05-09T12:00:23.187Z,23.14
2023-05-09T12:02:50.269Z,23.44
2023-05-09T12:05:18.258Z,23.30
2023-05-09T12:07:45.464Z,23.84
2023-05-09T12:10:14.373Z,23.95
2023-05-09T12:12:49.317Z,24.07
2023-05-09T12:15:17.024Z,24.42
2023-05-09T12:17:45.027Z,24.72
2023-05-09T12:20:11.868Z,24.35
2023-05-09T12:22:38.683Z,23.57
2023-05-09T12:25:09.683Z,23.41
2023-05-09T12:27:37.770Z,23.09
2023-05-09T12:30:08.351Z,22.68
2023-05-09T12:32:35.476Z,22.40
2023-05-09T12:35:02.206Z,22.54
2023-05-09T12:37:31.073Z,22.57
2023-05-09T12:40:10.040Z,22.93
2023-05-09T12:42:36.533Z,22.74
2023-05-09T12:45:03.637Z,22.54
2023-05-09T12:47:31.144Z,22.35
2023-05-09T12:49:59.019Z,22.48
2023-05-09T12:52:25.989Z,22.77
2023-05-09T12:54:53.494Z,22.93
2023-05-09T12:57:25.133Z,23.18
2023-05-09T12:59:51.471Z,22.83
2023-05-09T13:02:17.820Z,22.76
2023-05-09T13:04:44.177Z,22.64
2023-05-09T13:07:10.743Z,22.34
2023-05-09T13:09:54.875Z,22.42
2023-05-09T13:12:21.224Z,22.92
2023-05-09T13:14:47.608Z,23.46
2023-05-09T13:17:14.016Z,23.36
2023-05-09T13:19:40.348Z,23.48
2023-05-09T13:22:06.690Z,23.67
2023-05-09T13:24:33.016Z,23.87
2023-05-09T13:26:59.343Z,23.53
2023-05-09T13:29:25.697Z,22.99
2023-05-09T13:31:52.005Z,22.82
2023-05-09T13:34:18.344Z,22.70
2023-05-09T13:36:44.652Z,22.69
2023-05-09T13:39:10.974Z,22.55
2023-05-09T13:41:38.191Z,22.63
2023-05-09T13:44:04.760Z,22.29
2023-05-09T13:46:31.130Z,22.38
2023-05-09T13:48:57.440Z,22.42
2023-05-09T13:51:23.749Z,22.64
2023-05-09T13:53:50.045Z,22.95
2023-05-09T13:56:16.386Z,23.28
2023-05-09T13:58:42.686Z,23.65
2023-05-09T14:01:09.121Z,23.41
2023-05-09T14:03:35.499Z,23.62
2023-05-09T14:06:01.939Z,23.32
2023-05-09T14:08:28.256Z,23.07
2023-05-09T14:10:54.571Z,22.92
2023-05-09T14:13:20.936Z,22.70
2023-05-09T14:15:47.413Z,22.84
2023-05-09T14:18:17.731Z,23.15
2023-05-09T14:20:45.602Z,22.88
2023-05-09T14:23:11.912Z,22.81
2023-05-09T14:25:38.196Z,22.87
2023-05-09T14:28:04.880Z,22.93
2023-05-09T14:30:31.204Z,23.35
2023-05-09T14:32:57.551Z,23.61
2023-05-09T14:35:23.964Z,23.65
2023-05-09T14:37:50.323Z,23.53
2023-05-09T14:40:16.904Z,23.23
2023-05-09T14:42:43.415Z,22.84
2023-05-09T14:45:09.964Z,22.78
2023-05-09T14:47:36.265Z,22.68
2023-05-09T14:50:02.686Z,22.61
2023-05-09T14:52:28.979Z,22.43
2023-05-09T14:54:55.570Z,22.36
2023-05-09T14:57:21.881Z,22.40
2023-05-09T14:59:48.176Z,22.23
2023-05-09T15:02:14.487Z,21.97
2023-05-09T15:04:40.817Z,22.05
2023-05-09T15:07:07.110Z,22.01
2023-05-09T15:09:33.438Z,22.23
2023-05-09T15:11:59.761Z,22.59
2023-05-09T15:14:26.112Z,22.33
2023-05-09T15:16:52.504Z,22.47
2023-05-09T15:19:19.153Z,22.15
2023-05-09T15:21:45.560Z,21.98
2023-05-09T15:24:11.854Z,21.85
2023-05-09T15:26:38.308Z,21.92
2023-05-09T15:29:04.597Z,21.90
2023-05-09T15:31:32.792Z,21.93
2023-05-09T15:33:59.663Z,21.96
2023-05-09T15:36:27.854Z,21.87
2023-05-09T15:38:54.131Z,21.67
2023-05-09T15:41:20.466Z,21.53
2023-05-09T15:43:46.760Z,21.39
2023-05-09T15:46:13.118Z,21.43
2023-05-09T15:48:39.422Z,21.35
2023-05-09T15:51:05.832Z,21.37
2023-05-09T15:53:32.140Z,21.52
2023-05-09T15:55:58.453Z,21.59
2023-05-09T15:58:24.944Z,21.57
2023-05-09T16:00:51.378Z,21.45
2023-05-09T16:03:18.335Z,21.45
2023-05-09T16:05:44.937Z,21.51
2023-05-09T16:08:11.244Z,21.59
2023-05-09T16:10:37.640Z,21.49
2023-05-09T16:13:04.000Z,21.40
2023-05-09T16:15:30.419Z,21.32
2023-05-09T16:17:56.745Z,20.94
2023-05-09T16:20:23.168Z,20.76
2023-05-09T16:22:49.491Z,20.66
2023-05-09T16:25:16.527Z,20.63
2023-05-09T16:27:42.893Z,20.49
2023-05-09T16:30:09.691Z,20.53
2023-05-09T16:32:36.006Z,20.44
2023-05-09T16:35:02.307Z,20.31
2023-05-09T16:37:28.611Z,20.36
2023-05-09T16:39:55.143Z,20.24
2023-05-09T16:42:21.462Z,20.32
2023-05-09T16:44:47.945Z,20.40
2023-05-09T16:47:14.322Z,20.25
2023-05-09T16:49:40.617Z,20.21
2023-05-09T16:52:06.984Z,20.16
2023-05-09T16:54:33.276Z,20.00
2023-05-09T16:56:59.594Z,20.09
2023-05-09T16:59:25.949Z,20.27
2023-05-09T17:01:52.248Z,20.21
2023-05-09T17:04:18.561Z,20.17
2023-05-09T17:06:44.958Z,20.03
2023-05-09T17:09:11.255Z,19.93
2023-05-09T17:11:37.542Z,19.74
2023-05-09T17:14:03.848Z,19.61
2023-05-09T17:16:30.195Z,19.48
2023-05-09T17:18:56.518Z,19.42
2023-05-09T17:21:22.809Z,19.16
2023-05-09T17:23:49.198Z,19.16
2023-05-09T17:26:15.500Z,19.05
2023-05-09T17:28:41.828Z,19.10
2023-05-09T17:31:08.125Z,19.14
2023-05-09T17:33:34.480Z,19.00
2023-05-09T17:36:00.857Z,18.99
2023-05-09T17:38:27.163Z,19.01
2023-05-09T17:40:53.485Z,19.03
2023-05-09T17:43:19.804Z,18.86
2023-05-09T17:45:46.157Z,18.88
2023-05-09T17:48:12.474Z,18.80
2023-05-09T17:50:38.822Z,18.88
2023-05-09T17:53:05.129Z,18.93
2023-05-09T17:55:31.431Z,18.79
2023-05-09T17:57:57.726Z,18.61
2023-05-09T18:00:24.089Z,18.55
2023-05-09T18:02:50.444Z,18.57
2023-05-09T18:05:16.850Z,18.47
2023-05-09T18:07:43.139Z,18.36
2023-05-09T18:10:09.961Z,18.32
2023-05-09T18:12:37.173Z,18.19
2023-05-09T18:15:04.144Z,18.05
2023-05-09T18:17:30.462Z,17.97
2023-05-09T18:19:56.807Z,17.92
2023-05-09T18:22:23.135Z,17.85
2023-05-09T18:24:49.538Z,17.71
2023-05-09T18:27:16.518Z,17.74
2023-05-09T18:29:42.799Z,17.65
2023-05-09T18:32:09.103Z,17.64
2023-05-09T18:34:35.404Z,17.36
2023-05-09T18:37:01.697Z,17.32
2023-05-09T18:39:27.994Z,17.40
2023-05-09T18:41:54.337Z,17.39
2023-05-09T18:44:20.639Z,17.30
2023-05-09T18:46:47.025Z,17.27
2023-05-09T18:49:13.355Z,17.07
2023-05-09T18:51:39.706Z,17.19
2023-05-09T18:54:06.025Z,17.19
2023-05-09T18:56:32.379Z,17.15
2023-05-09T18:58:58.658Z,17.01
2023-05-09T19:01:25.050Z,17.00
2023-05-09T19:03:51.642Z,17.14
2023-05-09T19:06:17.959Z,17.09
2023-05-09T19:08:44.336Z,16.90
2023-05-09T19:11:10.653Z,16.89
2023-05-09T19:13:38.118Z,16.79
2023-05-09T19:16:05.532Z,16.61
2023-05-09T19:18:31.876Z,16.53
2023-05-09T19:20:58.810Z,16.54
2023-05-09T19:23:25.935Z,16.62
2023-05-09T19:25:52.960Z,16.67
2023-05-09T19:28:20.282Z,16.61
2023-05-09T19:30:46.733Z,16.50
2023-05-09T19:33:13.065Z,16.54
2023-05-09T19:35:41.265Z,16.68
2023-05-09T19:38:07.733Z,16.65
2023-05-09T19:40:34.372Z,16.69
2023-05-09T19:43:00.661Z,16.62
2023-05-09T19:45:26.973Z,16.50
2023-05-09T19:47:53.320Z,16.59
2023-05-09T19:50:19.764Z,16.46
2023-05-09T19:52:46.273Z,16.47
2023-05-09T19:55:12.784Z,16.48
2023-05-09T19:57:39.623Z,16.48
2023-05-09T20:00:08.525Z,16.33
2023-05-09T20:02:34.967Z,16.31
2023-05-09T20:05:01.339Z,16.30
2023-05-09T20:07:27.795Z,16.26
2023-05-09T20:09:54.112Z,16.28
2023-05-09T20:12:20.415Z,16.25
2023-05-09T20:14:46.736Z,16.22
2023-05-09T20:17:13.032Z,16.14
2023-05-09T20:19:39.410Z,16.06
2023-05-09T20:22:05.727Z,16.04
2023-05-09T20:24:32.064Z,15.82
2023-05-09T20:26:58.473Z,15.89
2023-05-09T20:29:25.407Z,15.69
2023-05-09T20:31:51.775Z,15.71
2023-05-09T20:34:18.110Z,15.71
2023-05-09T20:36:47.307Z,15.66
2023-05-09T20:39:13.612Z,15.68
2023-05-09T20:41:39.926Z,15.85
2023-05-09T20:44:06.238Z,15.85
2023-05-09T20:46:32.706Z,15.93
2023-05-09T20:48:59.004Z,15.67
2023-05-09T20:51:25.368Z,15.50
2023-05-09T20:53:51.681Z,15.51
2023-05-09T20:56:18.000Z,15.67
2023-05-09T20:58:44.318Z,15.80
2023-05-09T21:01:10.659Z,15.84
2023-05-09T21:03:37.003Z,15.73
2023-05-09T21:06:03.542Z,15.71
2023-05-09T21:08:29.867Z,15.30
2023-05-09T21:10:56.178Z,15.09
2023-05-09T21:13:22.701Z,15.05
2023-05-09T21:15:49.711Z,15.06
2023-05-09T21:18:16.486Z,15.19
2023-05-09T21:20:42.797Z,15.00
2023-05-09T21:23:09.120Z,14.94
2023-05-09T21:25:35.421Z,14.98
2023-05-09T21:28:01.762Z,15.00
2023-05-09T21:30:28.116Z,15.04
2023-05-09T21:32:54.490Z,14.89
2023-05-09T21:35:20.905Z,14.83
2023-05-09T21:37:47.202Z,14.84
2023-05-09T21:40:13.876Z,14.96
2023-05-09T21:42:40.410Z,14.91
2023-05-09T21:45:09.503Z,14.92
2023-05-09T21:47:36.593Z,14.83
2023-05-09T21:50:03.133Z,14.76
2023-05-09T21:52:29.933Z,14.69
2023-05-09T21:54:56.238Z,14.76
2023-05-09T21:57:22.560Z,14.74
2023-05-09T21:59:48.857Z,14.70
2023-05-09T22:02:15.353Z,14.68
2023-05-09T22:04:41.723Z,14.68
2023-05-09T22:07:08.050Z,14.69
2023-05-09T22:09:34.717Z,14.63
2023-05-09T22:12:01.077Z,14.65
2023-05-09T22:14:27.384Z,14.55
2023-05-09T22:16:53.684Z,14.55
2023-05-09T22:19:20.037Z,14.46
2023-05-09T22:21:46.424Z,14.46
2023-05-09T22:24:12.752Z,14.48
2023-05-09T22:26:39.062Z,14.59
2023-05-09T22:29:05.379Z,14.63
2023-05-09T22:31:31.734Z,14.69
2023-05-09T22:33:58.050Z,14.76
2023-05-09T22:36:24.828Z,14.77
2023-05-09T22:38:51.132Z,14.78
2023-05-09T22:41:17.452Z,14.82
2023-05-09T22:43:43.752Z,14.77
2023-05-09T22:46:10.112Z,14.71
2023-05-09T22:48:36.448Z,14.63
2023-05-09T22:51:02.826Z,14.61
2023-05-09T22:53:29.134Z,14.63
2023-05-09T22:55:55.438Z,14.45
2023-05-09T22:58:21.822Z,14.39
2023-05-09T23:00:48.136Z,14.43
2023-05-09T23:03:14.524Z,14.48
2023-05-09T23:05:40.942Z,14.48
2023-05-09T23:08:07.293Z,14.52
2023-05-09T23:10:33.593Z,14.51
2023-05-09T23:12:59.990Z,14.34
2023-05-09T23:15:26.482Z,14.32
2023-05-09T23:17:52.904Z,14.36
2023-05-09T23:20:19.595Z,14.34
2023-05-09T23:22:45.956Z,14.33
2023-05-09T23:25:12.272Z,14.34
2023-05-09T23:27:38.644Z,14.24
2023-05-09T23:30:05.574Z,14.06
2023-05-09T23:32:31.889Z,13.94
2023-05-09T23:34:58.224Z,13.87
2023-05-09T23:37:24.509Z,13.84
2023-05-09T23:39:50.804Z,13.82
2023-05-09T23:42:17.101Z,13.83
2023-05-09T23:44:43.405Z,13.82
2023-05-09T23:47:09.697Z,13.86
2023-05-09T23:49:35.997Z,13.77
2023-05-09T23:52:02.340Z,13.76
2023-05-09T23:54:28.708Z,13.77
2023-05-09T23:56:55.012Z,13.77
2023-05-09T23:59:21.308Z,13.85
